sensor_id;sensor_type;location;lat;lon;timestamp;temperature;humidity
30381;DHT22;17169;50.966;11.038;2024-02-15T00:00:28;10.90;99.90
30381;DHT22;17169;50.966;11.038;2024-02-15T00:03:31;10.90;99.90
30381;DHT22;17169;50.966;11.038;2024-02-15T00:06:35;10.90;99.90
30381;DHT22;17169;50.966;11.038;2024-02-15T00:09:37;10.80;99.90
30381;DHT22;17169;50.966;11.038;2024-02-15T00:12:40;10.80;99.90
30381;DHT22;17169;50.966;11.038;2024-02-15T00:15:42;10.90;99.90
30381;DHT22;17169;50.966;11.038;2024-02-15T00:18:45;10.90;99.90
30381;DHT22;17169;50.966;11.038;2024-02-15T00:21:48;10.90;99.90
30381;DHT22;17169;50.966;11.038;2024-02-15T00:24:51;10.90;99.90
30381;DHT22;17169;50.966;11.038;2024-02-15T00:27:54;11.00;99.90
30381;DHT22;17169;50.966;11.038;2024-02-15T00:30:56;11.00;99.90
30381;DHT22;17169;50.966;11.038;2024-02-15T00:33:59;11.00;99.90
30381;DHT22;17169;50.966;11.038;2024-02-15T00:37:05;11.00;99.90
30381;DHT22;17169;50.966;11.038;2024-02-15T00:40:08;11.10;99.90
30381;DHT22;17169;50.966;11.038;2024-02-15T00:43:10;11.00;99.90
30381;DHT22;17169;50.966;11.038;2024-02-15T00:46:13;11.00;99.90
30381;DHT22;17169;50.966;11.038;2024-02-15T00:49:15;11.00;99.90
30381;DHT22;17169;50.966;11.038;2024-02-15T00:52:21;10.90;99.90
30381;DHT22;17169;50.966;11.038;2024-02-15T00:55:23;10.90;99.90
30381;DHT22;17169;50.966;11.038;2024-02-15T00:58:26;10.90;99.90
30381;DHT22;17169;50.966;11.038;2024-02-15T01:01:28;10.90;99.90
30381;DHT22;17169;50.966;11.038;2024-02-15T01:04:31;10.90;99.90
30381;DHT22;17169;50.966;11.038;2024-02-15T01:07:35;10.90;99.90
30381;DHT22;17169;50.966;11.038;2024-02-15T01:10:37;10.90;99.90
30381;DHT22;17169;50.966;11.038;2024-02-15T01:13:40;10.90;99.90
30381;DHT22;17169;50.966;11.038;2024-02-15T01:16:42;10.90;99.90
30381;DHT22;17169;50.966;11.038;2024-02-15T01:19:45;10.90;99.90
30381;DHT22;17169;50.966;11.038;2024-02-15T01:22:49;10.90;99.90
30381;DHT22;17169;50.966;11.038;2024-02-15T01:25:52;10.90;99.90
30381;DHT22;17169;50.966;11.038;2024-02-15T01:28:55;10.90;99.90
30381;DHT22;17169;50.966;11.038;2024-02-15T01:31:57;10.90;99.90
30381;DHT22;17169;50.966;11.038;2024-02-15T01:35:00;11.00;99.90
30381;DHT22;17169;50.966;11.038;2024-02-15T01:38:05;11.00;99.90
30381;DHT22;17169;50.966;11.038;2024-02-15T01:41:07;11.00;99.90
30381;DHT22;17169;50.966;11.038;2024-02-15T01:44:10;11.00;99.90
30381;DHT22;17169;50.966;11.038;2024-02-15T01:47:12;11.00;99.90
30381;DHT22;17169;50.966;11.038;2024-02-15T01:50:17;11.00;99.90
30381;DHT22;17169;50.966;11.038;2024-02-15T01:53:21;11.00;99.90
30381;DHT22;17169;50.966;11.038;2024-02-15T01:56:25;11.00;99.90
30381;DHT22;17169;50.966;11.038;2024-02-15T01:59:28;11.00;99.90
30381;DHT22;17169;50.966;11.038;2024-02-15T02:02:34;11.10;99.90
30381;DHT22;17169;50.966;11.038;2024-02-15T02:05:37;11.00;99.90
30381;DHT22;17169;50.966;11.038;2024-02-15T02:08:41;11.00;99.90
30381;DHT22;17169;50.966;11.038;2024-02-15T02:11:45;11.10;99.90
30381;DHT22;17169;50.966;11.038;2024-02-15T02:14:49;11.10;99.90
30381;DHT22;17169;50.966;11.038;2024-02-15T02:17:51;11.00;99.90
30381;DHT22;17169;50.966;11.038;2024-02-15T02:20:54;11.10;99.90
30381;DHT22;17169;50.966;11.038;2024-02-15T02:23:58;11.10;99.90
30381;DHT22;17169;50.966;11.038;2024-02-15T02:27:02;11.10;99.90
30381;DHT22;17169;50.966;11.038;2024-02-15T02:30:11;11.10;99.90
30381;DHT22;17169;50.966;11.038;2024-02-15T02:33:16;11.10;99.90
30381;DHT22;17169;50.966;11.038;2024-02-15T02:36:19;11.10;99.90
30381;DHT22;17169;50.966;11.038;2024-02-15T02:39:22;11.10;99.90
30381;DHT22;17169;50.966;11.038;2024-02-15T02:42:26;11.10;99.90
30381;DHT22;17169;50.966;11.038;2024-02-15T02:45:28;11.20;99.90
30381;DHT22;17169;50.966;11.038;2024-02-15T02:48:31;11.20;99.90
30381;DHT22;17169;50.966;11.038;2024-02-15T02:51:33;11.20;99.90
30381;DHT22;17169;50.966;11.038;2024-02-15T02:54:35;11.20;99.90
30381;DHT22;17169;50.966;11.038;2024-02-15T02:57:39;11.20;99.90
30381;DHT22;17169;50.966;11.038;2024-02-15T03:00:42;11.20;99.90
30381;DHT22;17169;50.966;11.038;2024-02-15T03:03:44;11.20;99.90
30381;DHT22;17169;50.966;11.038;2024-02-15T03:06:48;11.20;99.90
30381;DHT22;17169;50.966;11.038;2024-02-15T03:09:50;11.20;99.90
30381;DHT22;17169;50.966;11.038;2024-02-15T03:12:54;11.20;99.90
30381;DHT22;17169;50.966;11.038;2024-02-15T03:15:56;11.20;99.90
30381;DHT22;17169;50.966;11.038;2024-02-15T03:18:59;11.20;99.90
30381;DHT22;17169;50.966;11.038;2024-02-15T03:22:03;11.20;99.90
30381;DHT22;17169;50.966;11.038;2024-02-15T03:25:07;11.20;99.90
30381;DHT22;17169;50.966;11.038;2024-02-15T03:28:11;11.20;99.90
30381;DHT22;17169;50.966;11.038;2024-02-15T03:31:14;11.20;99.90
30381;DHT22;17169;50.966;11.038;2024-02-15T03:34:16;11.20;99.90
30381;DHT22;17169;50.966;11.038;2024-02-15T03:37:22;11.20;99.90
30381;DHT22;17169;50.966;11.038;2024-02-15T03:40:24;11.20;99.90
30381;DHT22;17169;50.966;11.038;2024-02-15T03:43:29;11.20;99.90
30381;DHT22;17169;50.966;11.038;2024-02-15T03:46:31;11.30;99.90
30381;DHT22;17169;50.966;11.038;2024-02-15T03:49:34;11.30;99.90
30381;DHT22;17169;50.966;11.038;2024-02-15T03:52:36;11.30;99.90
30381;DHT22;17169;50.966;11.038;2024-02-15T03:55:39;11.30;99.90
30381;DHT22;17169;50.966;11.038;2024-02-15T03:58:43;11.30;99.90
30381;DHT22;17169;50.966;11.038;2024-02-15T04:01:45;11.30;99.90
30381;DHT22;17169;50.966;11.038;2024-02-15T04:04:48;11.30;99.90
30381;DHT22;17169;50.966;11.038;2024-02-15T04:07:53;11.30;99.90
30381;DHT22;17169;50.966;11.038;2024-02-15T04:10:56;11.40;99.90
30381;DHT22;17169;50.966;11.038;2024-02-15T04:14:00;11.40;99.90
30381;DHT22;17169;50.966;11.038;2024-02-15T04:17:02;11.40;99.90
30381;DHT22;17169;50.966;11.038;2024-02-15T04:20:06;11.40;99.90
30381;DHT22;17169;50.966;11.038;2024-02-15T04:23:09;11.40;99.90
30381;DHT22;17169;50.966;11.038;2024-02-15T04:26:12;11.40;99.90
30381;DHT22;17169;50.966;11.038;2024-02-15T04:29:16;11.40;99.90
30381;DHT22;17169;50.966;11.038;2024-02-15T04:32:19;11.40;99.90
30381;DHT22;17169;50.966;11.038;2024-02-15T04:35:21;11.40;99.90
30381;DHT22;17169;50.966;11.038;2024-02-15T04:38:23;11.40;99.90
30381;DHT22;17169;50.966;11.038;2024-02-15T04:41:26;11.40;99.90
30381;DHT22;17169;50.966;11.038;2024-02-15T04:44:31;11.40;99.90
30381;DHT22;17169;50.966;11.038;2024-02-15T04:47:36;11.40;99.90
30381;DHT22;17169;50.966;11.038;2024-02-15T04:50:38;11.50;99.90
30381;DHT22;17169;50.966;11.038;2024-02-15T04:53:43;11.40;99.90
30381;DHT22;17169;50.966;11.038;2024-02-15T04:56:47;11.40;99.90
30381;DHT22;17169;50.966;11.038;2024-02-15T04:59:53;11.40;99.90
30381;DHT22;17169;50.966;11.038;2024-02-15T05:02:55;11.40;99.90
30381;DHT22;17169;50.966;11.038;2024-02-15T05:05:57;11.40;99.90
30381;DHT22;17169;50.966;11.038;2024-02-15T05:09:00;11.40;99.90
30381;DHT22;17169;50.966;11.038;2024-02-15T05:12:06;11.40;99.90
30381;DHT22;17169;50.966;11.038;2024-02-15T05:15:10;11.40;99.90
30381;DHT22;17169;50.966;11.038;2024-02-15T05:18:12;11.40;99.90
30381;DHT22;17169;50.966;11.038;2024-02-15T05:21:15;11.50;99.90
30381;DHT22;17169;50.966;11.038;2024-02-15T05:24:17;11.50;99.90
30381;DHT22;17169;50.966;11.038;2024-02-15T05:27:20;11.40;99.90
30381;DHT22;17169;50.966;11.038;2024-02-15T05:30:26;11.50;99.90
30381;DHT22;17169;50.966;11.038;2024-02-15T05:33:28;11.50;99.90
30381;DHT22;17169;50.966;11.038;2024-02-15T05:36:33;11.50;99.90
30381;DHT22;17169;50.966;11.038;2024-02-15T05:39:35;11.50;99.90
30381;DHT22;17169;50.966;11.038;2024-02-15T05:42:38;11.50;99.90
30381;DHT22;17169;50.966;11.038;2024-02-15T05:45:42;11.50;99.90
30381;DHT22;17169;50.966;11.038;2024-02-15T05:48:46;11.50;99.90
30381;DHT22;17169;50.966;11.038;2024-02-15T05:51:49;11.60;99.90
30381;DHT22;17169;50.966;11.038;2024-02-15T05:54:54;11.60;99.90
30381;DHT22;17169;50.966;11.038;2024-02-15T05:57:56;11.60;99.90
30381;DHT22;17169;50.966;11.038;2024-02-15T06:01:01;11.60;99.90
30381;DHT22;17169;50.966;11.038;2024-02-15T06:04:06;11.60;99.90
30381;DHT22;17169;50.966;11.038;2024-02-15T06:07:09;11.60;99.90
30381;DHT22;17169;50.966;11.038;2024-02-15T06:10:12;11.70;99.90
30381;DHT22;17169;50.966;11.038;2024-02-15T06:13:15;11.70;99.90
30381;DHT22;17169;50.966;11.038;2024-02-15T06:16:19;11.70;99.90
30381;DHT22;17169;50.966;11.038;2024-02-15T06:19:21;11.70;99.90
30381;DHT22;17169;50.966;11.038;2024-02-15T06:22:24;11.70;99.90
30381;DHT22;17169;50.966;11.038;2024-02-15T06:25:28;11.70;99.90
30381;DHT22;17169;50.966;11.038;2024-02-15T06:28:30;11.80;99.90
30381;DHT22;17169;50.966;11.038;2024-02-15T06:31:59;11.80;99.90
30381;DHT22;17169;50.966;11.038;2024-02-15T06:35:19;11.80;99.90
30381;DHT22;17169;50.966;11.038;2024-02-15T06:38:39;11.80;99.90
30381;DHT22;17169;50.966;11.038;2024-02-15T06:41:55;11.80;99.90
30381;DHT22;17169;50.966;11.038;2024-02-15T06:44:58;11.80;99.90
30381;DHT22;17169;50.966;11.038;2024-02-15T06:48:02;11.90;99.90
30381;DHT22;17169;50.966;11.038;2024-02-15T06:51:04;11.90;99.90
30381;DHT22;17169;50.966;11.038;2024-02-15T06:54:09;11.90;99.90
30381;DHT22;17169;50.966;11.038;2024-02-15T06:57:12;11.90;99.90
30381;DHT22;17169;50.966;11.038;2024-02-15T07:00:15;12.00;99.90
30381;DHT22;17169;50.966;11.038;2024-02-15T07:03:20;12.00;99.90
30381;DHT22;17169;50.966;11.038;2024-02-15T07:06:24;12.10;99.90
30381;DHT22;17169;50.966;11.038;2024-02-15T07:09:28;12.10;99.90
30381;DHT22;17169;50.966;11.038;2024-02-15T07:12:30;12.10;99.90
30381;DHT22;17169;50.966;11.038;2024-02-15T07:15:33;12.10;99.90
30381;DHT22;17169;50.966;11.038;2024-02-15T07:18:40;12.10;99.90
30381;DHT22;17169;50.966;11.038;2024-02-15T07:21:42;12.10;99.90
30381;DHT22;17169;50.966;11.038;2024-02-15T07:24:45;12.20;99.90
30381;DHT22;17169;50.966;11.038;2024-02-15T07:27:47;12.20;99.90
30381;DHT22;17169;50.966;11.038;2024-02-15T07:30:52;12.30;99.90
30381;DHT22;17169;50.966;11.038;2024-02-15T07:33:57;12.30;99.90
30381;DHT22;17169;50.966;11.038;2024-02-15T07:37:01;12.30;99.90
30381;DHT22;17169;50.966;11.038;2024-02-15T07:40:05;12.30;99.90
30381;DHT22;17169;50.966;11.038;2024-02-15T07:43:09;12.40;99.90
30381;DHT22;17169;50.966;11.038;2024-02-15T07:46:12;12.40;99.90
30381;DHT22;17169;50.966;11.038;2024-02-15T07:49:18;12.40;99.90
30381;DHT22;17169;50.966;11.038;2024-02-15T07:52:21;12.40;99.90
30381;DHT22;17169;50.966;11.038;2024-02-15T07:55:23;12.40;99.90
30381;DHT22;17169;50.966;11.038;2024-02-15T07:58:26;12.50;99.90
30381;DHT22;17169;50.966;11.038;2024-02-15T08:01:28;12.60;99.90
30381;DHT22;17169;50.966;11.038;2024-02-15T08:04:33;12.60;99.90
30381;DHT22;17169;50.966;11.038;2024-02-15T08:07:42;12.60;99.90
30381;DHT22;17169;50.966;11.038;2024-02-15T08:10:45;12.70;99.90
30381;DHT22;17169;50.966;11.038;2024-02-15T08:13:51;12.80;99.90
30381;DHT22;17169;50.966;11.038;2024-02-15T08:16:55;12.80;99.90
30381;DHT22;17169;50.966;11.038;2024-02-15T08:19:59;12.90;99.90
30381;DHT22;17169;50.966;11.038;2024-02-15T08:23:01;13.00;99.90
30381;DHT22;17169;50.966;11.038;2024-02-15T08:26:04;13.10;99.90
30381;DHT22;17169;50.966;11.038;2024-02-15T08:29:06;13.20;99.90
30381;DHT22;17169;50.966;11.038;2024-02-15T08:32:08;13.30;99.90
30381;DHT22;17169;50.966;11.038;2024-02-15T08:35:14;13.50;99.90
30381;DHT22;17169;50.966;11.038;2024-02-15T08:38:16;13.60;99.90
30381;DHT22;17169;50.966;11.038;2024-02-15T08:41:19;13.70;99.90
30381;DHT22;17169;50.966;11.038;2024-02-15T08:44:24;13.70;99.90
30381;DHT22;17169;50.966;11.038;2024-02-15T08:47:27;13.70;99.90
30381;DHT22;17169;50.966;11.038;2024-02-15T08:50:30;13.80;99.90
30381;DHT22;17169;50.966;11.038;2024-02-15T08:53:33;13.80;99.90
30381;DHT22;17169;50.966;11.038;2024-02-15T08:56:35;13.80;99.90
30381;DHT22;17169;50.966;11.038;2024-02-15T08:59:39;13.70;99.90
30381;DHT22;17169;50.966;11.038;2024-02-15T09:02:43;13.90;99.90
30381;DHT22;17169;50.966;11.038;2024-02-15T09:05:47;13.80;99.90
30381;DHT22;17169;50.966;11.038;2024-02-15T09:08:50;13.80;99.90
30381;DHT22;17169;50.966;11.038;2024-02-15T09:11:52;13.80;99.90
30381;DHT22;17169;50.966;11.038;2024-02-15T09:14:55;13.90;99.90
30381;DHT22;17169;50.966;11.038;2024-02-15T09:17:57;13.90;99.90
30381;DHT22;17169;50.966;11.038;2024-02-15T09:21:01;14.00;99.90
30381;DHT22;17169;50.966;11.038;2024-02-15T09:24:05;13.90;99.90
30381;DHT22;17169;50.966;11.038;2024-02-15T09:27:08;14.00;99.90
30381;DHT22;17169;50.966;11.038;2024-02-15T09:30:13;13.90;99.90
30381;DHT22;17169;50.966;11.038;2024-02-15T09:33:17;13.90;99.90
30381;DHT22;17169;50.966;11.038;2024-02-15T09:36:21;14.00;99.90
30381;DHT22;17169;50.966;11.038;2024-02-15T09:39:23;14.10;99.90
30381;DHT22;17169;50.966;11.038;2024-02-15T09:42:26;14.10;99.90
30381;DHT22;17169;50.966;11.038;2024-02-15T09:45:29;14.10;99.90
30381;DHT22;17169;50.966;11.038;2024-02-15T09:48:34;14.20;99.90
30381;DHT22;17169;50.966;11.038;2024-02-15T09:51:39;14.30;99.90
30381;DHT22;17169;50.966;11.038;2024-02-15T09:54:42;14.40;99.90
30381;DHT22;17169;50.966;11.038;2024-02-15T09:57:46;14.50;99.90
30381;DHT22;17169;50.966;11.038;2024-02-15T10:00:48;14.60;99.90
30381;DHT22;17169;50.966;11.038;2024-02-15T10:03:51;14.60;99.90
30381;DHT22;17169;50.966;11.038;2024-02-15T10:06:55;14.60;99.90
30381;DHT22;17169;50.966;11.038;2024-02-15T10:10:14;14.70;99.90
30381;DHT22;17169;50.966;11.038;2024-02-15T10:13:22;14.70;99.90
30381;DHT22;17169;50.966;11.038;2024-02-15T10:16:25;14.70;99.90
30381;DHT22;17169;50.966;11.038;2024-02-15T10:19:27;14.70;99.90
30381;DHT22;17169;50.966;11.038;2024-02-15T10:22:37;14.70;99.90
30381;DHT22;17169;50.966;11.038;2024-02-15T10:25:40;14.70;99.90
30381;DHT22;17169;50.966;11.038;2024-02-15T10:28:43;14.70;99.90
30381;DHT22;17169;50.966;11.038;2024-02-15T10:31:53;14.70;99.90
30381;DHT22;17169;50.966;11.038;2024-02-15T10:34:55;14.80;99.90
30381;DHT22;17169;50.966;11.038;2024-02-15T10:38:07;14.80;99.90
30381;DHT22;17169;50.966;11.038;2024-02-15T10:41:10;15.00;99.90
30381;DHT22;17169;50.966;11.038;2024-02-15T10:44:16;15.10;99.90
30381;DHT22;17169;50.966;11.038;2024-02-15T10:47:19;15.20;99.90
30381;DHT22;17169;50.966;11.038;2024-02-15T10:50:22;15.20;99.90
30381;DHT22;17169;50.966;11.038;2024-02-15T10:53:27;15.30;99.90
30381;DHT22;17169;50.966;11.038;2024-02-15T10:56:34;15.40;99.90
30381;DHT22;17169;50.966;11.038;2024-02-15T10:59:39;15.50;99.90
30381;DHT22;17169;50.966;11.038;2024-02-15T11:02:50;15.70;99.90
30381;DHT22;17169;50.966;11.038;2024-02-15T11:05:59;15.90;99.90
30381;DHT22;17169;50.966;11.038;2024-02-15T11:09:04;16.00;99.90
30381;DHT22;17169;50.966;11.038;2024-02-15T11:12:08;16.10;99.90
30381;DHT22;17169;50.966;11.038;2024-02-15T11:15:43;16.10;99.90
30381;DHT22;17169;50.966;11.038;2024-02-15T11:18:49;16.20;99.90
30381;DHT22;17169;50.966;11.038;2024-02-15T11:21:53;16.20;99.90
30381;DHT22;17169;50.966;11.038;2024-02-15T11:24:59;16.20;99.90
30381;DHT22;17169;50.966;11.038;2024-02-15T11:28:38;16.30;99.90
30381;DHT22;17169;50.966;11.038;2024-02-15T11:31:54;16.40;99.90
30381;DHT22;17169;50.966;11.038;2024-02-15T11:35:02;16.40;99.90
30381;DHT22;17169;50.966;11.038;2024-02-15T11:38:27;16.40;99.90
30381;DHT22;17169;50.966;11.038;2024-02-15T11:41:31;16.30;99.90
30381;DHT22;17169;50.966;11.038;2024-02-15T11:44:34;16.30;99.90
30381;DHT22;17169;50.966;11.038;2024-02-15T11:47:37;16.30;99.90
30381;DHT22;17169;50.966;11.038;2024-02-15T11:50:41;16.30;99.90
30381;DHT22;17169;50.966;11.038;2024-02-15T11:53:43;16.20;99.90
30381;DHT22;17169;50.966;11.038;2024-02-15T11:56:51;16.10;99.90
30381;DHT22;17169;50.966;11.038;2024-02-15T11:59:55;16.00;99.90
30381;DHT22;17169;50.966;11.038;2024-02-15T12:03:14;16.00;99.90
30381;DHT22;17169;50.966;11.038;2024-02-15T12:06:33;16.10;99.90
30381;DHT22;17169;50.966;11.038;2024-02-15T12:09:58;16.10;99.90
30381;DHT22;17169;50.966;11.038;2024-02-15T12:13:28;16.10;99.90
30381;DHT22;17169;50.966;11.038;2024-02-15T12:16:59;16.10;99.90
30381;DHT22;17169;50.966;11.038;2024-02-15T12:20:19;16.20;99.90
30381;DHT22;17169;50.966;11.038;2024-02-15T12:23:25;16.20;99.90
30381;DHT22;17169;50.966;11.038;2024-02-15T12:26:29;16.20;99.90
30381;DHT22;17169;50.966;11.038;2024-02-15T12:29:37;16.20;99.90
30381;DHT22;17169;50.966;11.038;2024-02-15T12:32:39;16.30;99.90
30381;DHT22;17169;50.966;11.038;2024-02-15T12:35:41;16.40;99.90
30381;DHT22;17169;50.966;11.038;2024-02-15T12:38:44;16.50;99.90
30381;DHT22;17169;50.966;11.038;2024-02-15T12:41:48;16.60;99.90
30381;DHT22;17169;50.966;11.038;2024-02-15T12:44:53;16.70;99.90
30381;DHT22;17169;50.966;11.038;2024-02-15T12:47:56;16.80;99.90
30381;DHT22;17169;50.966;11.038;2024-02-15T12:50:59;16.90;99.90
30381;DHT22;17169;50.966;11.038;2024-02-15T12:54:08;17.00;99.90
30381;DHT22;17169;50.966;11.038;2024-02-15T12:57:11;17.20;99.90
30381;DHT22;17169;50.966;11.038;2024-02-15T13:00:18;17.20;99.90
30381;DHT22;17169;50.966;11.038;2024-02-15T13:03:21;17.30;99.90
30381;DHT22;17169;50.966;11.038;2024-02-15T13:06:24;17.30;99.90
30381;DHT22;17169;50.966;11.038;2024-02-15T13:09:26;17.20;99.90
30381;DHT22;17169;50.966;11.038;2024-02-15T13:12:29;17.20;99.90
30381;DHT22;17169;50.966;11.038;2024-02-15T13:15:32;17.10;99.90
30381;DHT22;17169;50.966;11.038;2024-02-15T13:18:35;17.10;99.90
30381;DHT22;17169;50.966;11.038;2024-02-15T13:21:38;17.00;99.90
30381;DHT22;17169;50.966;11.038;2024-02-15T13:24:40;17.10;99.90
30381;DHT22;17169;50.966;11.038;2024-02-15T13:27:43;17.10;99.90
30381;DHT22;17169;50.966;11.038;2024-02-15T13:30:48;17.00;99.90
30381;DHT22;17169;50.966;11.038;2024-02-15T13:33:52;17.00;99.90
30381;DHT22;17169;50.966;11.038;2024-02-15T13:36:55;16.90;99.90
30381;DHT22;17169;50.966;11.038;2024-02-15T13:39:57;17.00;99.90
30381;DHT22;17169;50.966;11.038;2024-02-15T13:43:00;17.00;99.90
30381;DHT22;17169;50.966;11.038;2024-02-15T13:46:07;17.00;99.90
30381;DHT22;17169;50.966;11.038;2024-02-15T13:49:09;17.00;99.90
30381;DHT22;17169;50.966;11.038;2024-02-15T13:52:14;17.00;99.90
30381;DHT22;17169;50.966;11.038;2024-02-15T13:55:18;17.10;99.90
30381;DHT22;17169;50.966;11.038;2024-02-15T13:58:21;17.00;99.90
30381;DHT22;17169;50.966;11.038;2024-02-15T14:01:25;16.90;99.90
30381;DHT22;17169;50.966;11.038;2024-02-15T14:04:28;17.00;99.90
30381;DHT22;17169;50.966;11.038;2024-02-15T14:07:30;16.90;99.90
30381;DHT22;17169;50.966;11.038;2024-02-15T14:10:33;16.90;99.90
30381;DHT22;17169;50.966;11.038;2024-02-15T14:13:36;16.90;99.90
30381;DHT22;17169;50.966;11.038;2024-02-15T14:16:39;17.00;99.90
30381;DHT22;17169;50.966;11.038;2024-02-15T14:19:42;17.00;99.90
30381;DHT22;17169;50.966;11.038;2024-02-15T14:22:45;16.90;99.90
30381;DHT22;17169;50.966;11.038;2024-02-15T14:25:50;17.00;99.90
30381;DHT22;17169;50.966;11.038;2024-02-15T14:28:54;16.90;99.90
30381;DHT22;17169;50.966;11.038;2024-02-15T14:31:57;16.90;99.90
30381;DHT22;17169;50.966;11.038;2024-02-15T14:35:17;16.90;99.90
30381;DHT22;17169;50.966;11.038;2024-02-15T14:38:21;16.90;99.90
30381;DHT22;17169;50.966;11.038;2024-02-15T14:41:23;16.90;99.90
30381;DHT22;17169;50.966;11.038;2024-02-15T14:44:26;16.80;99.90
30381;DHT22;17169;50.966;11.038;2024-02-15T14:47:30;16.70;99.90
30381;DHT22;17169;50.966;11.038;2024-02-15T14:50:32;16.60;99.90
30381;DHT22;17169;50.966;11.038;2024-02-15T14:53:35;16.60;99.90
30381;DHT22;17169;50.966;11.038;2024-02-15T14:56:38;16.60;99.90
30381;DHT22;17169;50.966;11.038;2024-02-15T14:59:41;16.60;99.90
30381;DHT22;17169;50.966;11.038;2024-02-15T15:02:46;16.70;99.90
30381;DHT22;17169;50.966;11.038;2024-02-15T15:05:49;16.70;99.90
30381;DHT22;17169;50.966;11.038;2024-02-15T15:09:09;16.70;99.90
30381;DHT22;17169;50.966;11.038;2024-02-15T15:12:29;16.80;99.90
30381;DHT22;17169;50.966;11.038;2024-02-15T15:15:42;16.90;99.90
30381;DHT22;17169;50.966;11.038;2024-02-15T15:18:48;16.90;99.90
30381;DHT22;17169;50.966;11.038;2024-02-15T15:21:50;16.90;99.90
30381;DHT22;17169;50.966;11.038;2024-02-15T15:24:53;16.80;99.90
30381;DHT22;17169;50.966;11.038;2024-02-15T15:27:55;16.70;99.90
30381;DHT22;17169;50.966;11.038;2024-02-15T15:30:58;16.50;99.90
30381;DHT22;17169;50.966;11.038;2024-02-15T15:34:02;16.50;99.90
30381;DHT22;17169;50.966;11.038;2024-02-15T15:37:04;16.40;99.90
30381;DHT22;17169;50.966;11.038;2024-02-15T15:40:08;16.30;99.90
30381;DHT22;17169;50.966;11.038;2024-02-15T15:43:12;16.20;99.90
30381;DHT22;17169;50.966;11.038;2024-02-15T15:46:15;16.10;99.90
30381;DHT22;17169;50.966;11.038;2024-02-15T15:49:18;16.00;99.90
30381;DHT22;17169;50.966;11.038;2024-02-15T15:52:22;15.90;99.90
30381;DHT22;17169;50.966;11.038;2024-02-15T15:55:24;15.80;99.90
30381;DHT22;17169;50.966;11.038;2024-02-15T15:58:27;15.80;99.90
30381;DHT22;17169;50.966;11.038;2024-02-15T16:01:29;15.70;99.90
30381;DHT22;17169;50.966;11.038;2024-02-15T16:04:33;15.60;99.90
30381;DHT22;17169;50.966;11.038;2024-02-15T16:07:35;15.50;99.90
30381;DHT22;17169;50.966;11.038;2024-02-15T16:10:39;15.50;99.90
30381;DHT22;17169;50.966;11.038;2024-02-15T16:13:42;15.30;99.90
30381;DHT22;17169;50.966;11.038;2024-02-15T16:16:47;15.20;99.90
30381;DHT22;17169;50.966;11.038;2024-02-15T16:19:51;15.20;99.90
30381;DHT22;17169;50.966;11.038;2024-02-15T16:22:53;15.10;99.90
30381;DHT22;17169;50.966;11.038;2024-02-15T16:25:55;15.00;99.90
30381;DHT22;17169;50.966;11.038;2024-02-15T16:28:59;14.90;99.90
30381;DHT22;17169;50.966;11.038;2024-02-15T16:32:01;14.80;99.90
30381;DHT22;17169;50.966;11.038;2024-02-15T16:35:06;14.80;99.90
30381;DHT22;17169;50.966;11.038;2024-02-15T16:38:11;14.70;99.90
30381;DHT22;17169;50.966;11.038;2024-02-15T16:41:13;14.60;99.90
30381;DHT22;17169;50.966;11.038;2024-02-15T16:44:16;14.60;99.90
30381;DHT22;17169;50.966;11.038;2024-02-15T16:47:18;14.50;99.90
30381;DHT22;17169;50.966;11.038;2024-02-15T16:50:23;14.40;99.90
30381;DHT22;17169;50.966;11.038;2024-02-15T16:53:25;14.30;99.90
30381;DHT22;17169;50.966;11.038;2024-02-15T16:56:28;14.20;99.90
30381;DHT22;17169;50.966;11.038;2024-02-15T16:59:31;14.10;99.90
30381;DHT22;17169;50.966;11.038;2024-02-15T17:02:35;14.00;99.90
30381;DHT22;17169;50.966;11.038;2024-02-15T17:05:40;13.90;99.90
30381;DHT22;17169;50.966;11.038;2024-02-15T17:08:43;13.90;99.90
30381;DHT22;17169;50.966;11.038;2024-02-15T17:11:46;13.80;99.90
30381;DHT22;17169;50.966;11.038;2024-02-15T17:14:49;13.80;99.90
30381;DHT22;17169;50.966;11.038;2024-02-15T17:17:52;13.70;99.90
30381;DHT22;17169;50.966;11.038;2024-02-15T17:20:56;13.70;99.90
30381;DHT22;17169;50.966;11.038;2024-02-15T17:23:58;13.60;99.90
30381;DHT22;17169;50.966;11.038;2024-02-15T17:27:01;13.60;99.90
30381;DHT22;17169;50.966;11.038;2024-02-15T17:30:05;13.50;99.90
30381;DHT22;17169;50.966;11.038;2024-02-15T17:33:09;13.50;99.90
30381;DHT22;17169;50.966;11.038;2024-02-15T17:36:13;13.40;99.90
30381;DHT22;17169;50.966;11.038;2024-02-15T17:39:16;13.40;99.90
30381;DHT22;17169;50.966;11.038;2024-02-15T17:42:18;13.40;99.90
30381;DHT22;17169;50.966;11.038;2024-02-15T17:45:21;13.30;99.90
30381;DHT22;17169;50.966;11.038;2024-02-15T17:48:23;13.30;99.90
30381;DHT22;17169;50.966;11.038;2024-02-15T17:51:29;13.30;99.90
30381;DHT22;17169;50.966;11.038;2024-02-15T17:54:35;13.30;99.90
30381;DHT22;17169;50.966;11.038;2024-02-15T17:57:38;13.30;99.90
30381;DHT22;17169;50.966;11.038;2024-02-15T18:00:41;13.30;99.90
30381;DHT22;17169;50.966;11.038;2024-02-15T18:03:43;13.20;99.90
30381;DHT22;17169;50.966;11.038;2024-02-15T18:06:47;13.20;99.90
30381;DHT22;17169;50.966;11.038;2024-02-15T18:09:50;13.20;99.90
30381;DHT22;17169;50.966;11.038;2024-02-15T18:12:52;13.20;99.90
30381;DHT22;17169;50.966;11.038;2024-02-15T18:15:55;13.20;99.90
30381;DHT22;17169;50.966;11.038;2024-02-15T18:18:57;13.20;99.90
30381;DHT22;17169;50.966;11.038;2024-02-15T18:22:03;13.10;99.90
30381;DHT22;17169;50.966;11.038;2024-02-15T18:25:07;13.10;99.90
30381;DHT22;17169;50.966;11.038;2024-02-15T18:28:09;13.00;99.90
30381;DHT22;17169;50.966;11.038;2024-02-15T18:31:13;13.00;99.90
30381;DHT22;17169;50.966;11.038;2024-02-15T18:34:18;13.00;99.90
30381;DHT22;17169;50.966;11.038;2024-02-15T18:37:22;13.00;99.90
30381;DHT22;17169;50.966;11.038;2024-02-15T18:40:24;12.90;99.90
30381;DHT22;17169;50.966;11.038;2024-02-15T18:43:32;12.90;99.90
30381;DHT22;17169;50.966;11.038;2024-02-15T18:46:35;12.80;99.90
30381;DHT22;17169;50.966;11.038;2024-02-15T18:49:37;12.90;99.90
30381;DHT22;17169;50.966;11.038;2024-02-15T18:52:41;12.80;99.90
30381;DHT22;17169;50.966;11.038;2024-02-15T18:55:43;12.80;99.90
30381;DHT22;17169;50.966;11.038;2024-02-15T18:58:45;12.80;99.90
30381;DHT22;17169;50.966;11.038;2024-02-15T19:01:48;12.70;99.90
30381;DHT22;17169;50.966;11.038;2024-02-15T19:04:50;12.70;99.90